Archiv-/Tagesdaten

--Timestamp---	Temp	Chill	HIndex	Humid	Dewpt	 Wind 	HiWind	WindDir	Rain 	Barom	Solar	 ET  	 UV 
--------------	----	-----	------	-----	-----	------	------	-------	-----	-----	-----	-----	----
20110809 00:00	13.5	13.5	13.5	67	7.5	8	16	270	0.0	1015.9	0	0.051	0.0
20110809 00:05	13.4	13.4	13.4	68	7.6	10	23	248	0.0	1015.9	0	0.000	0.0
20110809 00:10	13.3	13.3	13.3	68	7.5	11	21	270	0.0	1015.9	0	0.000	0.0
20110809 00:15	13.3	13.3	13.3	69	7.8	11	23	270	0.0	1015.9	0	0.000	0.0
20110809 00:20	13.3	13.3	13.3	69	7.7	11	23	248	0.0	1015.9	0	0.000	0.0
20110809 00:25	13.3	13.3	13.3	70	7.9	11	23	270	0.0	1016.0	0	0.000	0.0
20110809 00:30	13.2	13.2	13.2	70	7.9	10	23	270	0.0	1015.9	0	0.000	0.0
20110809 00:35	13.2	13.2	13.2	70	7.8	11	24	248	0.0	1016.1	0	0.000	0.0
20110809 00:40	13.1	13.1	13.1	70	7.8	14	29	248	0.0	1016.2	0	0.000	0.0
20110809 00:45	13.1	13.1	13.1	71	7.9	10	19	248	0.0	1016.2	0	0.000	0.0
20110809 00:50	12.9	12.9	12.9	72	8.0	13	24	248	0.0	1016.2	0	0.000	0.0
20110809 00:55	12.9	12.9	12.9	72	8.0	16	29	270	0.0	1016.2	0	0.000	0.0
20110809 01:00	12.9	12.9	12.9	72	8.0	14	24	270	0.0	1016.3	-100000	0.051	0.0
20110809 01:05	13.0	13.0	13.0	72	8.1	16	31	270	0.0	1016.4	-100000	0.000	0.0
20110809 01:10	13.1	13.1	13.1	71	7.9	14	31	270	0.0	1016.4	0	0.000	0.0
20110809 01:15	13.0	13.0	13.0	71	7.9	14	24	270	0.0	1016.4	0	0.000	0.0
20110809 01:20	13.0	13.0	13.0	71	7.9	14	24	248	0.0	1016.4	0	0.000	0.0
20110809 01:25	13.0	13.0	13.0	71	7.9	14	27	248	0.0	1016.5	0	0.000	0.0
20110809 01:30	13.0	13.0	13.0	72	8.1	14	26	248	0.0	1016.5	0	0.000	0.0
20110809 01:35	13.0	13.0	13.0	72	8.1	11	19	248	0.0	1016.5	0	0.000	0.0
20110809 01:40	12.9	12.9	12.9	73	8.2	11	19	248	0.0	1016.6	0	0.000	0.0
20110809 01:45	12.9	12.9	12.9	73	8.2	11	21	248	0.0	1016.6	0	0.000	0.0
20110809 01:50	12.8	12.8	12.8	73	8.1	11	21	248	0.0	1016.6	0	0.000	0.0
20110809 01:55	12.8	12.8	12.8	73	8.1	10	23	270	0.0	1016.6	0	0.000	0.0
20110809 02:00	12.8	12.8	12.8	74	8.3	10	19	270	0.0	1016.6	0	0.051	0.0
20110809 02:05	12.9	12.9	12.9	74	8.4	11	21	270	0.0	1016.5	0	0.000	0.0
20110809 02:10	12.9	12.9	12.9	74	8.4	11	21	248	0.0	1016.6	0	0.000	0.0
20110809 02:15	12.9	12.9	12.9	75	8.6	10	19	248	0.0	1016.6	0	0.000	0.0
20110809 02:20	13.0	13.0	13.0	75	8.7	11	23	248	0.0	1016.5	0	0.000	0.0
20110809 02:25	13.1	13.1	13.1	75	8.7	10	18	248	0.0	1016.4	0	0.000	0.0
20110809 02:30	13.2	13.2	13.2	74	8.6	13	24	248	0.0	1016.5	0	0.000	0.0
20110809 02:35	13.2	13.2	13.2	74	8.7	11	24	248	0.0	1016.5	0	0.000	0.0
20110809 02:40	13.2	13.2	13.2	74	8.7	14	24	248	0.0	1016.4	0	0.000	0.0
20110809 02:45	13.2	13.2	13.2	74	8.7	11	23	248	0.0	1016.5	0	0.000	0.0
20110809 02:50	13.2	13.2	13.2	74	8.6	13	23	248	0.0	1016.5	0	0.000	0.0
20110809 02:55	13.1	13.1	13.1	74	8.6	13	26	248	0.0	1016.7	0	0.000	0.0
20110809 03:00	13.0	13.0	13.0	75	8.7	11	18	248	0.0	1016.7	0	0.051	0.0
20110809 03:05	12.9	12.9	12.9	75	8.6	10	18	270	0.0	1016.6	0	0.000	0.0
20110809 03:10	12.8	12.8	12.8	75	8.5	11	21	248	0.0	1016.7	0	0.000	0.0
20110809 03:15	12.8	12.8	12.8	75	8.5	13	23	248	0.0	1016.8	0	0.000	0.0
20110809 03:20	12.8	12.8	12.8	75	8.5	11	19	248	0.0	1016.8	0	0.000	0.0
20110809 03:25	12.8	12.8	12.8	75	8.5	11	23	248	0.0	1016.8	0	0.000	0.0
20110809 03:30	12.8	12.8	12.8	75	8.5	11	24	248	0.0	1016.9	0	0.000	0.0
20110809 03:35	12.7	12.7	12.7	75	8.4	10	24	248	0.0	1016.9	0	0.000	0.0
20110809 03:40	12.8	12.8	12.8	75	8.5	11	21	248	0.0	1016.9	0	0.000	0.0
20110809 03:45	12.8	12.8	12.8	76	8.7	10	18	248	0.0	1016.9	0	0.000	0.0
20110809 03:50	12.9	12.9	12.9	76	8.8	10	19	270	0.0	1016.9	0	0.000	0.0
20110809 03:55	12.9	12.9	12.9	76	8.8	6	11	225	0.0	1016.8	0	0.000	0.0
20110809 04:00	12.8	12.8	12.8	76	8.7	8	18	248	0.0	1016.8	0	0.051	0.0
20110809 04:05	12.7	12.7	12.7	76	8.5	5	11	270	0.0	1016.9	0	0.000	0.0
20110809 04:10	12.6	12.6	12.6	77	8.6	5	10	270	0.0	1016.9	0	0.000	0.0
20110809 04:15	12.4	12.4	12.4	77	8.5	5	10	270	0.0	1016.9	0	0.000	0.0
20110809 04:20	12.3	12.3	12.3	78	8.6	6	11	248	0.0	1016.9	0	0.000	0.0
20110809 04:25	12.3	12.3	12.3	78	8.6	6	11	225	0.0	1016.9	0	0.000	0.0
20110809 04:30	12.3	12.3	12.3	78	8.6	6	11	248	0.0	1016.9	0	0.000	0.0
20110809 04:35	12.2	12.2	12.2	78	8.5	6	11	248	0.0	1016.8	0	0.000	0.0
20110809 04:40	12.2	12.2	12.2	78	8.4	6	11	248	0.0	1016.9	0	0.000	0.0
20110809 04:45	12.1	12.1	12.1	78	8.4	5	16	248	0.0	1016.8	0	0.000	0.0
20110809 04:50	12.1	12.1	12.1	78	8.3	5	11	248	0.0	1016.9	0	0.000	0.0
20110809 04:55	12.1	12.1	12.1	79	8.5	8	14	248	0.0	1016.9	0	0.000	0.0
20110809 05:00	12.0	12.0	12.0	79	8.5	8	14	248	0.0	1016.9	0	0.025	0.0
20110809 05:05	12.0	12.0	12.0	79	8.5	8	16	248	0.0	1017.1	0	0.000	0.0
20110809 05:10	12.0	12.0	12.0	79	8.5	8	11	248	0.0	1017.1	0	0.000	0.0
20110809 05:15	12.0	12.0	12.0	79	8.5	6	14	225	0.0	1017.2	0	0.000	0.0
20110809 05:20	12.1	12.1	12.1	79	8.5	8	16	225	0.0	1017.1	0	0.000	0.0
20110809 05:25	12.1	12.1	12.1	79	8.5	8	14	248	0.0	1017.1	0	0.000	0.0
20110809 05:30	12.1	12.1	12.1	79	8.6	6	13	248	0.0	1017.2	0	0.000	0.0
20110809 05:35	12.2	12.2	12.2	78	8.4	6	14	225	0.0	1017.1	0	0.000	0.0
20110809 05:40	12.2	12.2	12.2	78	8.4	6	11	225	0.0	1017.2	0	0.000	0.0
20110809 05:45	12.2	12.2	12.2	78	8.4	6	14	248	0.0	1017.2	0	0.000	0.0
20110809 05:50	12.1	12.1	12.1	79	8.6	5	11	225	0.0	1017.3	0	0.000	0.0
20110809 05:55	11.9	11.9	11.9	79	8.4	5	10	225	0.0	1017.3	0	0.000	0.0
20110809 06:00	11.8	11.8	11.8	80	8.4	6	11	225	0.0	1017.2	0	0.025	0.0
20110809 06:05	11.6	11.6	11.6	80	8.2	6	11	225	0.0	1017.6	2	0.000	0.0
20110809 06:10	11.3	11.3	11.3	81	8.2	6	10	202	0.0	1017.8	6	0.000	0.0
20110809 06:15	11.2	11.2	11.2	82	8.2	5	10	202	0.0	1017.8	10	0.000	0.0
20110809 06:20	11.0	11.0	11.0	83	8.2	6	11	225	0.0	1017.8	10	0.000	0.0
20110809 06:25	11.0	11.0	11.0	83	8.2	6	10	225	0.0	1017.9	13	0.000	0.0
20110809 06:30	11.1	11.1	11.1	83	8.3	8	11	202	0.0	1017.8	22	0.000	0.0
20110809 06:35	11.1	11.1	11.1	83	8.3	5	11	225	0.0	1017.8	32	0.000	0.0
20110809 06:40	11.2	11.2	11.2	83	8.4	6	10	202	0.0	1017.8	19	0.000	0.0
20110809 06:45	11.3	11.3	11.3	83	8.5	5	8	202	0.0	1017.8	16	0.000	0.0
20110809 06:50	11.3	11.3	11.3	83	8.5	6	8	202	0.0	1017.9	33	0.000	0.0
20110809 06:55	11.4	11.4	11.4	83	8.7	5	10	202	0.0	1017.7	36	0.000	0.0
20110809 07:00	11.5	11.5	11.5	83	8.7	5	8	225	0.0	1017.7	24	0.025	0.0
20110809 07:05	11.6	11.6	11.6	83	8.8	5	10	202	0.0	1017.7	31	0.000	0.0
20110809 07:10	11.7	11.7	11.7	83	8.9	6	11	202	0.0	1017.7	52	0.000	0.0
20110809 07:15	11.8	11.8	11.8	83	9.0	5	11	225	0.0	1017.7	52	0.000	0.0
20110809 07:20	11.9	11.9	11.9	83	9.1	5	6	225	0.0	1017.6	38	0.000	0.0
20110809 07:25	12.1	12.1	12.1	82	9.1	5	8	225	0.0	1017.7	39	0.000	0.0
20110809 07:30	12.2	12.2	12.2	82	9.2	6	16	225	0.0	1017.7	62	0.000	0.0
20110809 07:35	12.4	12.4	12.4	81	9.3	6	13	248	0.0	1017.7	90	0.000	0.0
20110809 07:40	12.7	12.7	12.7	80	9.4	6	11	248	0.0	1017.7	105	0.000	0.0
20110809 07:45	12.9	12.9	12.9	79	9.4	5	11	225	0.0	1017.7	87	0.000	0.0
20110809 07:50	13.1	13.1	13.1	78	9.4	8	14	225	0.0	1017.6	70	0.000	0.0
20110809 07:55	13.2	13.2	13.2	78	9.5	8	18	248	0.0	1017.7	83	0.000	0.0
20110809 08:00	13.3	13.3	13.3	78	9.6	11	21	270	0.0	1017.7	100	0.051	0.1
20110809 08:05	13.4	13.4	13.4	78	9.7	10	19	270	0.0	1017.8	112	0.000	0.5
20110809 08:10	13.5	13.5	13.5	78	9.7	10	18	270	0.0	1017.8	107	0.000	0.6
20110809 08:15	13.5	13.5	13.5	77	9.5	11	23	270	0.0	1017.8	87	0.000	0.6
20110809 08:20	13.6	13.6	13.6	77	9.6	10	23	270	0.0	1017.9	90	0.000	0.7
20110809 08:25	13.6	13.6	13.6	77	9.6	10	21	270	0.0	1017.8	133	0.000	0.9
20110809 08:30	13.8	13.8	13.8	77	9.9	11	21	270	0.0	1017.8	363	0.000	1.1
20110809 08:35	14.2	14.2	14.2	76	10.0	11	21	270	0.0	1017.7	285	0.000	1.2
20110809 08:40	14.6	14.6	14.6	75	10.2	11	21	270	0.0	1017.7	358	0.000	1.2
20110809 08:45	14.8	14.8	14.8	73	10.0	16	27	248	0.0	1017.6	202	0.000	0.9
20110809 08:50	14.8	14.8	14.8	73	10.0	14	21	270	0.0	1017.7	191	0.000	1.0
20110809 08:55	14.7	14.7	14.7	72	9.7	16	32	270	0.0	1017.7	173	0.000	0.9
20110809 09:00	14.7	14.7	14.7	72	9.7	14	26	270	0.0	1018.0	774	0.152	1.1
20110809 09:05	14.7	14.7	14.7	73	9.9	13	23	270	0.0	1018.1	189	0.000	1.1
20110809 09:10	14.7	14.7	14.7	73	9.9	13	24	270	0.0	1018.1	195	0.000	1.2
20110809 09:15	14.7	14.7	14.7	73	9.9	13	23	270	0.0	1018.0	217	0.000	1.4
20110809 09:20	14.8	14.8	14.8	72	9.8	13	23	270	0.0	1018.0	236	0.000	1.5
20110809 09:25	15.0	15.0	15.0	73	10.2	11	26	270	0.0	1017.9	289	0.000	1.7
20110809 09:30	15.1	15.1	15.1	73	10.3	13	21	270	0.0	1017.9	261	0.000	1.8
20110809 09:35	15.2	15.2	15.2	71	9.9	14	26	270	0.0	1017.9	199	0.000	1.5
20110809 09:40	15.2	15.2	15.2	71	9.9	11	23	270	0.0	1017.9	200	0.000	1.5
20110809 09:45	15.2	15.2	15.2	72	10.2	11	26	270	0.0	1017.9	251	0.000	1.7
20110809 09:50	15.2	15.2	15.2	71	10.0	18	27	248	0.0	1017.9	256	0.000	1.7
20110809 09:55	15.2	15.2	15.2	72	10.2	13	21	270	0.0	1018.0	227	0.000	1.7
20110809 10:00	15.3	15.3	15.3	71	10.0	13	21	270	0.0	1018.0	239	0.178	1.7
20110809 10:05	15.3	15.3	15.3	71	10.0	14	23	270	0.0	1018.1	290	0.000	2.0
20110809 10:10	15.3	15.3	15.3	71	10.1	14	26	270	0.0	1018.0	251	0.000	1.8
20110809 10:15	15.4	15.4	15.4	72	10.4	10	24	270	0.0	1018.0	301	0.000	2.3
20110809 10:20	15.6	15.6	15.6	71	10.4	13	24	292	0.0	1018.0	394	0.000	2.5
20110809 10:25	15.7	15.7	15.7	69	10.0	16	29	270	0.0	1018.0	184	0.000	1.5
20110809 10:30	15.6	15.6	15.6	69	9.9	13	21	270	0.0	1018.1	186	0.000	1.6
20110809 10:35	15.5	15.5	15.5	70	10.0	13	27	270	0.0	1018.0	243	0.000	3.0
20110809 10:40	15.7	15.7	15.7	68	9.8	14	31	292	0.0	1018.1	410	0.000	3.9
20110809 10:45	16.1	16.1	16.1	71	10.8	14	23	270	0.0	1018.1	894	0.000	5.0
20110809 10:50	16.7	16.7	16.7	66	10.3	16	29	270	0.0	1017.9	992	0.000	4.9
20110809 10:55	16.9	16.9	16.9	65	10.3	16	31	270	0.0	1017.9	264	0.000	2.6
20110809 11:00	16.7	16.7	16.7	64	9.8	18	29	270	0.0	1017.9	312	0.279	3.1
20110809 11:05	16.5	16.5	16.5	66	10.1	21	34	292	0.0	1018.0	745	0.000	4.5
20110809 11:10	16.6	16.6	16.6	65	9.9	16	34	292	0.0	1018.0	407	0.000	3.6
20110809 11:15	16.6	16.6	16.6	66	10.2	16	29	292	0.0	1017.9	386	0.000	3.9
20110809 11:20	16.8	16.8	16.8	65	10.2	16	26	292	0.0	1017.9	469	0.000	4.0
20110809 11:25	16.8	16.8	16.8	63	9.7	21	35	292	0.0	1018.1	315	0.000	3.0
20110809 11:30	16.6	16.6	16.6	64	9.7	21	34	270	0.0	1018.1	386	0.000	3.9
20110809 11:35	16.4	16.4	16.4	66	10.1	21	27	270	0.0	1018.1	479	0.000	4.2
20110809 11:40	16.4	16.4	16.4	67	10.2	16	27	270	0.0	1018.1	311	0.000	3.5
20110809 11:45	16.3	16.3	16.3	66	9.9	13	26	292	0.0	1018.3	187	0.000	2.2
20110809 11:50	16.0	16.0	16.0	69	10.3	13	23	270	0.0	1018.4	79	0.000	0.8
20110809 11:55	15.4	15.4	15.4	74	10.8	18	29	270	0.2	1018.6	87	0.000	0.8
20110809 12:00	14.4	14.4	14.4	77	10.5	18	27	292	0.4	1018.7	98	0.254	1.0
20110809 12:05	13.7	13.7	13.7	80	10.3	10	26	270	0.2	1018.6	129	0.000	1.7
20110809 12:10	13.2	13.2	13.2	83	10.4	8	13	270	0.0	1018.7	241	0.000	3.0
20110809 12:15	13.4	13.4	13.4	86	11.1	10	19	270	0.0	1018.8	491	0.000	4.6
20110809 12:20	13.6	13.6	13.6	85	11.1	11	21	270	0.2	1018.6	205	0.000	2.1
20110809 12:25	13.6	13.6	13.6	83	10.7	11	21	292	0.0	1018.6	184	0.000	2.1
20110809 12:30	13.4	13.4	13.4	82	10.4	10	23	270	0.0	1018.6	248	0.000	3.7
20110809 12:35	13.7	13.7	13.7	83	10.8	8	16	270	0.0	1018.5	850	0.000	7.1
20110809 12:40	14.3	14.3	14.3	84	11.6	10	21	248	0.0	1018.2	781	0.000	6.9
20110809 12:45	14.9	14.9	14.9	83	12.1	11	18	270	0.0	1018.1	780	0.000	7.1
20110809 12:50	15.3	15.3	15.3	80	11.8	13	27	270	0.0	1018.1	791	0.000	7.2
20110809 12:55	15.7	15.7	15.7	77	11.6	14	26	248	0.0	1018.0	818	0.000	7.4
20110809 13:00	16.2	16.2	16.2	76	11.9	13	21	270	0.0	1017.8	1505	0.305	7.4
20110809 13:05	16.5	16.5	16.5	74	11.8	14	27	270	0.0	1017.8	905	0.000	7.4
20110809 13:10	16.7	16.7	16.7	66	10.3	21	35	270	0.0	1017.8	582	0.000	5.9
20110809 13:15	16.8	16.8	16.8	65	10.2	21	35	292	0.0	1017.7	900	0.000	7.8
20110809 13:20	17.2	17.2	17.2	65	10.5	16	31	270	0.0	1017.6	886	0.000	7.8
20110809 13:25	17.3	17.3	17.3	60	9.5	19	31	248	0.0	1017.6	947	0.000	8.1
20110809 13:30	17.6	17.6	17.6	61	9.9	21	29	248	0.0	1017.5	951	0.000	8.2
20110809 13:35	17.9	17.9	17.9	60	10.0	19	34	270	0.0	1017.7	938	0.000	8.2
20110809 13:40	18.2	18.2	18.2	61	10.6	16	34	270	0.0	1017.5	938	0.000	6.8
20110809 13:45	18.1	18.1	18.1	58	9.7	21	39	248	0.0	1017.4	501	0.000	4.9
20110809 13:50	18.2	18.2	18.2	57	9.5	23	39	248	0.0	1017.5	1079	0.000	7.1
20110809 13:55	18.1	18.1	18.1	57	9.4	21	34	248	0.0	1017.6	146	0.000	4.3
20110809 14:00	17.3	17.3	17.3	59	9.2	29	51	270	0.0	1018.4	54	0.483	0.3
20110809 14:05	15.7	15.7	15.7	65	9.1	29	43	292	0.0	1018.7	25	0.000	0.0
20110809 14:10	14.6	14.6	14.6	72	9.6	24	48	292	0.4	1018.7	40	0.000	0.0
20110809 14:15	13.6	13.6	13.6	78	9.8	21	39	292	0.0	1018.8	93	0.000	1.0
20110809 14:20	12.9	12.9	12.9	81	9.8	18	29	292	0.2	1018.8	131	0.000	1.4
20110809 14:25	12.7	12.7	12.7	83	9.9	14	26	292	0.0	1018.8	148	0.000	1.5
20110809 14:30	12.6	12.6	12.6	84	10.0	10	23	292	0.0	1018.8	155	0.000	1.5
20110809 14:35	12.7	12.7	12.7	85	10.3	6	14	292	0.0	1018.8	155	0.000	1.5
20110809 14:40	12.8	12.8	12.8	85	10.3	10	19	270	0.0	1018.9	166	0.000	1.6
20110809 14:45	12.9	12.9	12.9	84	10.3	10	18	292	0.0	1018.7	234	0.000	2.4
20110809 14:50	13.3	13.3	13.3	85	10.8	8	23	270	0.0	1018.7	330	0.000	3.2
20110809 14:55	13.6	13.6	13.6	83	10.8	10	19	292	0.0	1018.7	362	0.000	3.6
20110809 15:00	14.1	14.1	14.1	81	10.8	11	19	270	0.0	1018.6	359	0.000	3.8
20110809 15:05	14.4	14.4	14.4	79	10.8	10	19	292	0.0	1018.6	440	0.127	4.5
20110809 15:10	15.0	15.0	15.0	75	10.6	13	24	292	0.0	1018.3	775	0.000	5.7
20110809 15:15	15.8	15.8	15.8	74	11.2	10	18	270	0.0	1018.2	640	0.000	4.3
20110809 15:20	16.1	16.1	16.1	71	10.8	14	27	270	0.0	1018.3	342	0.000	3.0
20110809 15:25	16.2	16.2	16.2	71	10.9	14	27	270	0.0	1018.2	358	0.000	3.0
20110809 15:30	16.2	16.2	16.2	67	10.1	18	31	270	0.0	1018.3	404	0.000	3.6
20110809 15:35	16.4	16.4	16.4	68	10.5	16	29	292	0.0	1018.3	349	0.000	3.1
20110809 15:40	16.4	16.4	16.4	63	9.4	16	29	270	0.0	1018.3	418	0.000	3.7
20110809 15:45	16.8	16.8	16.8	61	9.2	16	31	270	0.0	1018.2	708	0.000	4.8
20110809 15:50	17.3	17.3	17.3	63	10.2	14	24	270	0.0	1018.1	731	0.000	4.8
20110809 15:55	17.8	17.8	17.8	58	9.4	19	31	270	0.0	1018.1	709	0.000	4.6
20110809 16:00	17.9	17.9	17.9	59	9.8	16	29	292	0.0	1018.0	714	0.356	4.4
20110809 16:05	18.1	18.1	18.1	58	9.7	19	27	270	0.0	1017.8	706	0.000	4.3
20110809 16:10	18.3	18.3	18.3	58	9.9	18	29	270	0.0	1017.8	691	0.000	4.1
20110809 16:15	18.3	18.3	18.3	60	10.4	14	24	292	0.0	1017.8	732	0.000	3.3
20110809 16:20	18.2	18.2	18.2	58	9.8	18	29	270	0.0	1017.8	136	0.000	2.1
20110809 16:25	17.9	17.9	17.9	58	9.5	16	26	292	0.0	1017.9	188	0.000	2.3
20110809 16:30	17.7	17.7	17.7	59	9.6	13	23	270	0.0	1017.8	155	0.000	2.2
20110809 16:35	17.8	17.8	17.8	60	9.9	13	24	270	0.0	1017.8	549	0.000	2.9
20110809 16:40	18.1	18.1	18.1	59	9.9	13	23	270	0.0	1017.8	666	0.000	2.6
20110809 16:45	17.9	17.9	17.9	58	9.5	16	26	248	0.0	1017.7	132	0.000	1.3
20110809 16:50	17.2	17.2	17.2	60	9.3	21	35	248	0.0	1018.0	126	0.000	0.9
20110809 16:55	16.6	16.6	16.6	66	10.2	18	29	248	0.2	1018.1	81	0.000	0.6
20110809 17:00	15.9	15.9	15.9	70	10.5	18	27	248	0.0	1018.3	108	0.254	0.8
20110809 17:05	15.4	15.4	15.4	70	10.0	19	29	248	0.0	1018.4	163	0.000	1.1
20110809 17:10	15.3	15.3	15.3	73	10.5	11	24	225	0.0	1018.4	197	0.000	1.2
20110809 17:15	15.6	15.6	15.6	74	10.9	18	29	248	0.0	1018.3	569	0.000	2.0
20110809 17:20	16.2	16.2	16.2	69	10.5	19	32	248	0.0	1018.2	487	0.000	2.1
20110809 17:25	16.6	16.6	16.6	69	10.9	19	32	248	0.0	1018.2	463	0.000	1.9
20110809 17:30	16.9	16.9	16.9	67	10.7	21	35	248	0.0	1018.3	464	0.000	1.8
20110809 17:35	17.1	17.1	17.1	67	10.9	18	31	225	0.0	1018.2	404	0.000	1.6
20110809 17:40	16.9	16.9	16.9	66	10.5	14	24	248	0.0	1018.2	107	0.000	1.1
20110809 17:45	16.6	16.6	16.6	66	10.2	18	26	225	0.0	1018.2	113	0.000	1.0
20110809 17:50	16.6	16.6	16.6	66	10.2	16	32	270	0.0	1018.2	93	0.000	0.8
20110809 17:55	16.4	16.4	16.4	67	10.3	13	23	270	0.0	1018.1	41	0.000	0.1
20110809 18:00	16.3	16.3	16.3	68	10.4	16	32	270	0.0	1018.7	44	0.203	0.0
20110809 18:05	15.8	15.8	15.8	66	9.5	23	39	315	0.0	1018.6	203	0.000	0.6
20110809 18:10	15.6	15.6	15.6	68	9.7	23	32	292	0.0	1018.8	222	0.000	0.7
20110809 18:15	15.7	15.7	15.7	69	10.0	16	27	292	0.0	1018.8	465	0.000	0.8
20110809 18:20	15.7	15.7	15.7	65	9.2	19	32	315	0.0	1018.9	131	0.000	0.7
20110809 18:25	15.3	15.3	15.3	66	9.0	21	35	315	0.0	1018.9	96	0.000	0.3
20110809 18:30	15.0	15.0	15.0	67	8.9	19	31	315	0.0	1019.0	79	0.000	0.0
20110809 18:35	14.8	14.8	14.8	68	8.9	16	29	315	0.0	1019.0	53	0.000	0.0
20110809 18:40	14.7	14.7	14.7	69	9.1	13	24	292	0.0	1019.0	150	0.000	0.0
20110809 18:45	14.9	14.9	14.9	68	9.0	14	26	292	0.0	1019.0	161	0.000	0.1
20110809 18:50	15.0	15.0	15.0	68	9.1	11	24	292	0.0	1019.0	261	0.000	0.5
20110809 18:55	15.4	15.4	15.4	67	9.3	10	21	270	0.0	1019.1	258	0.000	0.5
20110809 19:00	15.6	15.6	15.6	66	9.3	10	19	270	0.0	1019.1	187	0.178	0.1
20110809 19:05	15.6	15.6	15.6	67	9.5	11	21	270	0.0	1018.9	102	0.000	0.0
20110809 19:10	15.6	15.6	15.6	68	9.7	10	18	292	0.0	1018.9	71	0.000	0.0
20110809 19:15	15.6	15.6	15.6	67	9.4	10	19	292	0.0	1019.0	72	0.000	0.0
20110809 19:20	15.4	15.4	15.4	68	9.6	10	18	270	0.0	1018.9	58	0.000	0.0
20110809 19:25	15.3	15.3	15.3	69	9.7	6	16	270	0.0	1018.9	54	0.000	0.0
20110809 19:30	15.3	15.3	15.3	70	9.8	6	13	225	0.0	1019.0	41	0.000	0.0
20110809 19:35	15.2	15.2	15.2	70	9.7	6	11	248	0.0	1019.1	38	0.000	0.0
20110809 19:40	15.1	15.1	15.1	71	9.9	5	11	270	0.0	1019.1	51	0.000	0.0
20110809 19:45	15.1	15.1	15.1	71	9.9	5	10	270	0.0	1019.2	39	0.000	0.0
20110809 19:50	15.2	15.2	15.2	71	9.9	6	10	248	0.0	1019.2	61	0.000	0.0
20110809 19:55	15.2	15.2	15.2	71	9.9	5	10	270	0.0	1019.4	42	0.000	0.0
20110809 20:00	15.2	15.2	15.2	72	10.2	6	16	270	0.0	1019.4	40	0.051	0.0
20110809 20:05	15.0	15.0	15.0	70	9.6	11	19	270	0.0	1019.5	52	0.000	0.0
20110809 20:10	14.9	14.9	14.9	69	9.3	11	21	270	0.0	1019.4	43	0.000	0.0
20110809 20:15	14.7	14.7	14.7	70	9.3	11	16	270	0.0	1019.6	37	0.000	0.0
20110809 20:20	14.6	14.6	14.6	70	9.1	11	21	292	0.0	1019.7	25	0.000	0.0
20110809 20:25	14.5	14.5	14.5	71	9.3	10	18	292	0.0	1019.7	13	0.000	0.0
20110809 20:30	14.3	14.3	14.3	70	8.9	10	21	270	0.0	1019.7	6	0.000	0.0
20110809 20:35	14.3	14.3	14.3	71	9.1	10	19	270	0.0	1019.8	1	0.000	0.0
20110809 20:40	14.2	14.2	14.2	72	9.2	10	19	270	0.0	1019.8	0	0.000	0.0
20110809 20:45	14.1	14.1	14.1	71	8.9	11	21	270	0.0	1020.0	0	0.000	0.0
20110809 20:50	14.0	14.0	14.0	71	8.8	10	18	270	0.0	1020.0	0	0.000	0.0
20110809 20:55	13.8	13.8	13.8	72	8.9	8	13	270	0.0	1020.1	0	0.000	0.0
20110809 21:00	13.7	13.7	13.7	72	8.8	8	16	292	0.0	1020.1	0	0.051	0.0
20110809 21:05	13.6	13.6	13.6	73	8.9	5	8	270	0.0	1020.0	0	0.000	0.0
20110809 21:10	13.4	13.4	13.4	74	8.9	5	10	270	0.0	1020.2	0	0.000	0.0
20110809 21:15	13.3	13.3	13.3	76	9.2	6	11	248	0.0	1020.3	0	0.000	0.0
20110809 21:20	13.3	13.3	13.3	77	9.3	6	14	248	0.0	1020.5	0	0.000	0.0
20110809 21:25	13.3	13.3	13.3	76	9.1	11	26	292	0.0	1020.6	0	0.000	0.0
20110809 21:30	13.4	13.4	13.4	76	9.2	14	23	270	0.0	1020.6	0	0.000	0.0
20110809 21:35	13.5	13.5	13.5	75	9.2	14	26	270	0.0	1020.7	0	0.000	0.0
20110809 21:40	13.6	13.6	13.6	75	9.2	14	27	270	0.0	1020.8	0	0.000	0.0
20110809 21:45	13.6	13.6	13.6	75	9.2	13	23	270	0.0	1020.9	0	0.000	0.0
20110809 21:50	13.6	13.6	13.6	75	9.2	11	21	270	0.0	1021.0	0	0.000	0.0
20110809 21:55	13.6	13.6	13.6	75	9.2	13	19	292	0.0	1020.9	0	0.000	0.0
20110809 22:00	13.5	13.5	13.5	74	9.0	11	19	292	0.0	1021.0	0	0.051	0.0
20110809 22:05	13.4	13.4	13.4	74	8.9	13	26	292	0.0	1021.0	0	0.000	0.0
20110809 22:10	13.4	13.4	13.4	74	8.9	16	24	270	0.0	1021.0	0	0.000	0.0
20110809 22:15	13.4	13.4	13.4	74	8.9	14	27	270	0.0	1021.0	0	0.000	0.0
20110809 22:20	13.4	13.4	13.4	74	8.8	13	23	270	0.0	1021.1	0	0.000	0.0
20110809 22:25	13.3	13.3	13.3	74	8.8	16	27	270	0.0	1021.2	0	0.000	0.0
20110809 22:30	13.3	13.3	13.3	75	8.9	11	24	292	0.0	1021.2	0	0.000	0.0
20110809 22:35	13.2	13.2	13.2	75	8.8	13	26	292	0.0	1021.3	0	0.000	0.0
20110809 22:40	13.1	13.1	13.1	76	8.9	14	23	292	0.0	1021.3	0	0.000	0.0
20110809 22:45	12.9	12.9	12.9	76	8.8	11	21	292	0.0	1021.5	0	0.000	0.0
20110809 22:50	12.9	12.9	12.9	77	9.0	13	24	292	0.0	1021.5	0	0.000	0.0
20110809 22:55	12.9	12.9	12.9	77	9.0	13	29	292	0.0	1021.5	0	0.000	0.0
20110809 23:00	12.9	12.9	12.9	76	8.8	10	21	315	0.0	1021.5	0	0.051	0.0
20110809 23:05	12.9	12.9	12.9	75	8.6	10	19	292	0.0	1021.9	0	0.000	0.0
20110809 23:10	12.9	12.9	12.9	73	8.2	11	19	292	0.0	1021.9	0	0.000	0.0
20110809 23:15	12.8	12.8	12.8	74	8.3	10	19	315	0.0	1021.9	0	0.000	0.0
20110809 23:20	12.7	12.7	12.7	74	8.2	8	16	315	0.0	1022.0	0	0.000	0.0
20110809 23:25	12.6	12.6	12.6	74	8.1	8	18	315	0.0	1022.0	0	0.000	0.0
20110809 23:30	12.5	12.5	12.5	74	8.0	8	13	292	0.0	1022.1	0	0.000	0.0
20110809 23:35	12.4	12.4	12.4	75	8.1	6	11	292	0.0	1022.2	0	0.000	0.0
20110809 23:40	12.4	12.4	12.4	76	8.3	6	18	292	0.0	1022.2	0	0.000	0.0
20110809 23:45	12.3	12.3	12.3	76	8.2	10	18	292	0.0	1022.3	0	0.000	0.0
20110809 23:50	12.3	12.3	12.3	77	8.4	6	10	292	0.0	1022.4	0	0.000	0.0
20110809 23:55	12.3	12.3	12.3	78	8.6	6	16	292	0.0	1022.4	0	0.000	0.0



Please note the license to use and transfer of this data:
http://creativecommons.org/licenses/by-nc-sa/3.0/deed.en

Bitte beachten sie die Lizenz zur Verwertung und Weitergabe der Daten:
http://creativecommons.org/licenses/by-nc-sa/3.0/deed.de

zurück zur Übersicht der Archivdaten (Monats und Tagesdaten)

Cookies helfen bei der Bereitstellung von Inhalten. Durch die Nutzung dieser Seiten erklärst du dich damit einverstanden, dass Cookies auf deinem Rechner gespeichert werden. Weitere Information